sensor_id;sensor_type;location;lat;lon;timestamp;P1;durP1;ratioP1;P2;durP2;ratioP2
8737;SDS011;4405;49.272;8.590;2023-07-08T00:00:10;8.97;;;8.07;;
8737;SDS011;4405;49.272;8.590;2023-07-08T00:02:36;10.77;;;8.17;;
8737;SDS011;4405;49.272;8.590;2023-07-08T00:05:03;9.03;;;8.20;;
8737;SDS011;4405;49.272;8.590;2023-07-08T00:07:29;8.20;;;7.40;;
8737;SDS011;4405;49.272;8.590;2023-07-08T00:09:56;10.23;;;7.47;;
8737;SDS011;4405;49.272;8.590;2023-07-08T00:12:22;8.13;;;7.33;;
8737;SDS011;4405;49.272;8.590;2023-07-08T00:14:50;9.00;;;8.17;;
8737;SDS011;4405;49.272;8.590;2023-07-08T00:17:16;8.63;;;7.80;;
8737;SDS011;4405;49.272;8.590;2023-07-08T00:19:42;9.03;;;7.97;;
8737;SDS011;4405;49.272;8.590;2023-07-08T00:22:12;8.40;;;7.43;;
8737;SDS011;4405;49.272;8.590;2023-07-08T00:24:39;8.37;;;7.57;;
8737;SDS011;4405;49.272;8.590;2023-07-08T00:27:07;12.70;;;7.80;;
8737;SDS011;4405;49.272;8.590;2023-07-08T00:29:34;8.37;;;7.67;;
8737;SDS011;4405;49.272;8.590;2023-07-08T00:32:04;8.97;;;7.63;;
8737;SDS011;4405;49.272;8.590;2023-07-08T00:34:34;10.00;;;7.60;;
8737;SDS011;4405;49.272;8.590;2023-07-08T00:37:00;8.97;;;7.47;;
8737;SDS011;4405;49.272;8.590;2023-07-08T00:39:30;8.30;;;7.53;;
8737;SDS011;4405;49.272;8.590;2023-07-08T00:41:56;8.90;;;8.03;;
8737;SDS011;4405;49.272;8.590;2023-07-08T00:44:23;10.77;;;7.77;;
8737;SDS011;4405;49.272;8.590;2023-07-08T00:46:52;8.10;;;7.40;;
8737;SDS011;4405;49.272;8.590;2023-07-08T00:49:26;8.67;;;7.87;;
8737;SDS011;4405;49.272;8.590;2023-07-08T00:51:54;8.37;;;7.53;;
8737;SDS011;4405;49.272;8.590;2023-07-08T00:54:20;8.77;;;7.53;;
8737;SDS011;4405;49.272;8.590;2023-07-08T00:56:47;8.37;;;7.67;;
8737;SDS011;4405;49.272;8.590;2023-07-08T00:59:17;8.50;;;7.63;;
8737;SDS011;4405;49.272;8.590;2023-07-08T01:01:45;8.47;;;7.67;;
8737;SDS011;4405;49.272;8.590;2023-07-08T01:04:13;8.50;;;7.17;;
8737;SDS011;4405;49.272;8.590;2023-07-08T01:06:43;8.57;;;7.80;;
8737;SDS011;4405;49.272;8.590;2023-07-08T01:09:11;8.40;;;7.60;;
8737;SDS011;4405;49.272;8.590;2023-07-08T01:11:39;11.20;;;7.67;;
8737;SDS011;4405;49.272;8.590;2023-07-08T01:14:06;9.67;;;7.70;;
8737;SDS011;4405;49.272;8.590;2023-07-08T01:16:33;7.93;;;7.23;;
8737;SDS011;4405;49.272;8.590;2023-07-08T01:19:00;7.93;;;7.23;;
8737;SDS011;4405;49.272;8.590;2023-07-08T01:21:29;7.83;;;7.13;;
8737;SDS011;4405;49.272;8.590;2023-07-08T01:23:57;8.20;;;7.40;;
8737;SDS011;4405;49.272;8.590;2023-07-08T01:26:24;8.27;;;7.47;;
8737;SDS011;4405;49.272;8.590;2023-07-08T01:28:51;11.10;;;8.10;;
8737;SDS011;4405;49.272;8.590;2023-07-08T01:31:18;8.77;;;7.87;;
8737;SDS011;4405;49.272;8.590;2023-07-08T01:33:44;8.40;;;7.70;;
8737;SDS011;4405;49.272;8.590;2023-07-08T01:36:11;8.30;;;7.37;;
8737;SDS011;4405;49.272;8.590;2023-07-08T01:38:37;8.67;;;7.83;;
8737;SDS011;4405;49.272;8.590;2023-07-08T01:41:05;8.60;;;7.80;;
8737;SDS011;4405;49.272;8.590;2023-07-08T01:43:36;8.43;;;7.60;;
8737;SDS011;4405;49.272;8.590;2023-07-08T01:46:03;8.20;;;7.40;;
8737;SDS011;4405;49.272;8.590;2023-07-08T01:48:30;7.97;;;7.10;;
8737;SDS011;4405;49.272;8.590;2023-07-08T01:51:00;7.73;;;7.03;;
8737;SDS011;4405;49.272;8.590;2023-07-08T01:53:29;8.03;;;7.23;;
8737;SDS011;4405;49.272;8.590;2023-07-08T01:55:55;12.10;;;8.03;;
8737;SDS011;4405;49.272;8.590;2023-07-08T01:58:23;9.50;;;7.23;;
8737;SDS011;4405;49.272;8.590;2023-07-08T02:00:49;8.80;;;7.63;;
8737;SDS011;4405;49.272;8.590;2023-07-08T02:03:16;8.50;;;7.60;;
8737;SDS011;4405;49.272;8.590;2023-07-08T02:05:42;8.10;;;7.30;;
8737;SDS011;4405;49.272;8.590;2023-07-08T02:08:08;8.27;;;7.20;;
8737;SDS011;4405;49.272;8.590;2023-07-08T02:10:36;7.97;;;7.17;;
8737;SDS011;4405;49.272;8.590;2023-07-08T02:13:03;11.33;;;7.50;;
8737;SDS011;4405;49.272;8.590;2023-07-08T02:15:30;12.20;;;8.00;;
8737;SDS011;4405;49.272;8.590;2023-07-08T02:17:57;8.13;;;7.43;;
8737;SDS011;4405;49.272;8.590;2023-07-08T02:20:23;9.73;;;7.50;;
8737;SDS011;4405;49.272;8.590;2023-07-08T02:22:49;8.43;;;7.20;;
8737;SDS011;4405;49.272;8.590;2023-07-08T02:25:16;7.90;;;7.20;;
8737;SDS011;4405;49.272;8.590;2023-07-08T02:27:42;8.20;;;7.27;;
8737;SDS011;4405;49.272;8.590;2023-07-08T02:30:09;9.93;;;7.30;;
8737;SDS011;4405;49.272;8.590;2023-07-08T02:32:36;8.27;;;7.50;;
8737;SDS011;4405;49.272;8.590;2023-07-08T02:35:04;8.23;;;6.80;;
8737;SDS011;4405;49.272;8.590;2023-07-08T02:37:30;8.60;;;7.50;;
8737;SDS011;4405;49.272;8.590;2023-07-08T02:39:57;7.60;;;6.87;;
8737;SDS011;4405;49.272;8.590;2023-07-08T02:42:23;8.20;;;7.47;;
8737;SDS011;4405;49.272;8.590;2023-07-08T02:44:49;7.83;;;7.13;;
8737;SDS011;4405;49.272;8.590;2023-07-08T02:47:16;7.57;;;6.87;;
8737;SDS011;4405;49.272;8.590;2023-07-08T02:49:43;8.63;;;7.00;;
8737;SDS011;4405;49.272;8.590;2023-07-08T02:52:10;8.23;;;7.43;;
8737;SDS011;4405;49.272;8.590;2023-07-08T02:54:37;8.10;;;7.17;;
8737;SDS011;4405;49.272;8.590;2023-07-08T02:57:04;8.50;;;7.30;;
8737;SDS011;4405;49.272;8.590;2023-07-08T02:59:30;8.57;;;7.33;;
8737;SDS011;4405;49.272;8.590;2023-07-08T03:01:56;7.43;;;6.70;;
8737;SDS011;4405;49.272;8.590;2023-07-08T03:04:23;8.13;;;7.33;;
8737;SDS011;4405;49.272;8.590;2023-07-08T03:06:52;7.97;;;7.20;;
8737;SDS011;4405;49.272;8.590;2023-07-08T03:09:19;7.93;;;7.13;;
8737;SDS011;4405;49.272;8.590;2023-07-08T03:11:45;7.73;;;6.97;;
8737;SDS011;4405;49.272;8.590;2023-07-08T03:14:12;8.10;;;7.27;;
8737;SDS011;4405;49.272;8.590;2023-07-08T03:16:38;9.77;;;7.63;;
8737;SDS011;4405;49.272;8.590;2023-07-08T03:19:04;7.80;;;6.70;;
8737;SDS011;4405;49.272;8.590;2023-07-08T03:21:30;8.43;;;6.70;;
8737;SDS011;4405;49.272;8.590;2023-07-08T03:23:58;8.33;;;7.00;;
8737;SDS011;4405;49.272;8.590;2023-07-08T03:26:25;7.93;;;7.13;;
8737;SDS011;4405;49.272;8.590;2023-07-08T03:28:52;8.57;;;7.30;;
8737;SDS011;4405;49.272;8.590;2023-07-08T03:31:19;9.90;;;7.43;;
8737;SDS011;4405;49.272;8.590;2023-07-08T03:33:45;7.60;;;6.90;;
8737;SDS011;4405;49.272;8.590;2023-07-08T03:36:13;8.00;;;7.20;;
8737;SDS011;4405;49.272;8.590;2023-07-08T03:38:47;8.40;;;7.07;;
8737;SDS011;4405;49.272;8.590;2023-07-08T03:41:15;7.47;;;6.70;;
8737;SDS011;4405;49.272;8.590;2023-07-08T03:43:41;7.70;;;7.00;;
8737;SDS011;4405;49.272;8.590;2023-07-08T03:46:08;8.17;;;6.70;;
8737;SDS011;4405;49.272;8.590;2023-07-08T03:48:35;7.90;;;7.20;;
8737;SDS011;4405;49.272;8.590;2023-07-08T03:51:02;7.40;;;6.70;;
8737;SDS011;4405;49.272;8.590;2023-07-08T03:53:28;8.10;;;7.30;;
8737;SDS011;4405;49.272;8.590;2023-07-08T03:55:55;9.73;;;6.70;;
8737;SDS011;4405;49.272;8.590;2023-07-08T03:58:22;7.53;;;6.73;;
8737;SDS011;4405;49.272;8.590;2023-07-08T04:00:49;7.50;;;6.73;;
8737;SDS011;4405;49.272;8.590;2023-07-08T04:03:15;7.57;;;6.70;;
8737;SDS011;4405;49.272;8.590;2023-07-08T04:05:41;7.73;;;6.70;;
8737;SDS011;4405;49.272;8.590;2023-07-08T04:08:08;9.57;;;7.10;;
8737;SDS011;4405;49.272;8.590;2023-07-08T04:10:34;8.67;;;7.13;;
8737;SDS011;4405;49.272;8.590;2023-07-08T04:13:00;7.33;;;6.70;;
8737;SDS011;4405;49.272;8.590;2023-07-08T04:15:28;7.50;;;6.80;;
8737;SDS011;4405;49.272;8.590;2023-07-08T04:17:54;7.97;;;7.03;;
8737;SDS011;4405;49.272;8.590;2023-07-08T04:20:22;7.63;;;6.83;;
8737;SDS011;4405;49.272;8.590;2023-07-08T04:22:49;6.83;;;6.20;;
8737;SDS011;4405;49.272;8.590;2023-07-08T04:25:15;8.13;;;7.20;;
8737;SDS011;4405;49.272;8.590;2023-07-08T04:27:41;7.27;;;6.57;;
8737;SDS011;4405;49.272;8.590;2023-07-08T04:30:09;8.00;;;6.90;;
8737;SDS011;4405;49.272;8.590;2023-07-08T04:32:42;7.30;;;6.60;;
8737;SDS011;4405;49.272;8.590;2023-07-08T04:35:08;12.20;;;7.27;;
8737;SDS011;4405;49.272;8.590;2023-07-08T04:37:34;7.50;;;6.63;;
8737;SDS011;4405;49.272;8.590;2023-07-08T04:40:01;7.30;;;6.67;;
8737;SDS011;4405;49.272;8.590;2023-07-08T04:42:27;8.67;;;6.77;;
8737;SDS011;4405;49.272;8.590;2023-07-08T04:44:54;7.20;;;6.50;;
8737;SDS011;4405;49.272;8.590;2023-07-08T04:47:20;6.97;;;6.37;;
8737;SDS011;4405;49.272;8.590;2023-07-08T04:49:48;6.70;;;6.10;;
8737;SDS011;4405;49.272;8.590;2023-07-08T04:52:14;7.67;;;6.60;;
8737;SDS011;4405;49.272;8.590;2023-07-08T04:54:41;8.07;;;6.90;;
8737;SDS011;4405;49.272;8.590;2023-07-08T04:57:07;7.43;;;6.47;;
8737;SDS011;4405;49.272;8.590;2023-07-08T04:59:33;9.23;;;6.73;;
8737;SDS011;4405;49.272;8.590;2023-07-08T05:02:00;8.50;;;6.73;;
8737;SDS011;4405;49.272;8.590;2023-07-08T05:04:26;7.47;;;6.77;;
8737;SDS011;4405;49.272;8.590;2023-07-08T05:06:54;7.13;;;6.43;;
8737;SDS011;4405;49.272;8.590;2023-07-08T05:09:20;6.93;;;6.33;;
8737;SDS011;4405;49.272;8.590;2023-07-08T05:11:50;6.93;;;6.20;;
8737;SDS011;4405;49.272;8.590;2023-07-08T05:14:17;7.37;;;6.67;;
8737;SDS011;4405;49.272;8.590;2023-07-08T05:16:43;6.83;;;6.33;;
8737;SDS011;4405;49.272;8.590;2023-07-08T05:19:09;7.27;;;6.20;;
8737;SDS011;4405;49.272;8.590;2023-07-08T05:21:36;7.70;;;6.57;;
8737;SDS011;4405;49.272;8.590;2023-07-08T05:24:05;7.40;;;6.73;;
8737;SDS011;4405;49.272;8.590;2023-07-08T05:26:31;7.07;;;6.47;;
8737;SDS011;4405;49.272;8.590;2023-07-08T05:28:58;7.03;;;6.37;;
8737;SDS011;4405;49.272;8.590;2023-07-08T05:31:24;8.90;;;7.03;;
8737;SDS011;4405;49.272;8.590;2023-07-08T05:33:51;7.03;;;6.40;;
8737;SDS011;4405;49.272;8.590;2023-07-08T05:36:17;7.27;;;6.50;;
8737;SDS011;4405;49.272;8.590;2023-07-08T05:38:43;7.00;;;6.30;;
8737;SDS011;4405;49.272;8.590;2023-07-08T05:41:11;6.97;;;6.33;;
8737;SDS011;4405;49.272;8.590;2023-07-08T05:43:38;7.00;;;6.30;;
8737;SDS011;4405;49.272;8.590;2023-07-08T05:46:04;7.67;;;6.47;;
8737;SDS011;4405;49.272;8.590;2023-07-08T05:48:30;8.17;;;6.83;;
8737;SDS011;4405;49.272;8.590;2023-07-08T05:50:57;7.43;;;6.73;;
8737;SDS011;4405;49.272;8.590;2023-07-08T05:53:23;7.93;;;6.80;;
8737;SDS011;4405;49.272;8.590;2023-07-08T05:55:49;7.80;;;6.87;;
8737;SDS011;4405;49.272;8.590;2023-07-08T05:58:17;7.80;;;6.80;;
8737;SDS011;4405;49.272;8.590;2023-07-08T06:00:44;7.70;;;6.70;;
8737;SDS011;4405;49.272;8.590;2023-07-08T06:03:10;7.17;;;6.37;;
8737;SDS011;4405;49.272;8.590;2023-07-08T06:05:37;7.10;;;6.50;;
8737;SDS011;4405;49.272;8.590;2023-07-08T06:08:05;7.93;;;6.83;;
8737;SDS011;4405;49.272;8.590;2023-07-08T06:10:31;8.93;;;6.57;;
8737;SDS011;4405;49.272;8.590;2023-07-08T06:12:58;11.23;;;6.97;;
8737;SDS011;4405;49.272;8.590;2023-07-08T06:15:25;7.23;;;6.63;;
8737;SDS011;4405;49.272;8.590;2023-07-08T06:17:52;8.57;;;6.57;;
8737;SDS011;4405;49.272;8.590;2023-07-08T06:20:18;7.67;;;6.97;;
8737;SDS011;4405;49.272;8.590;2023-07-08T06:22:44;8.23;;;7.43;;
8737;SDS011;4405;49.272;8.590;2023-07-08T06:25:11;7.10;;;6.50;;
8737;SDS011;4405;49.272;8.590;2023-07-08T06:27:37;8.07;;;6.87;;
8737;SDS011;4405;49.272;8.590;2023-07-08T06:30:04;7.93;;;6.60;;
8737;SDS011;4405;49.272;8.590;2023-07-08T06:32:32;10.77;;;6.77;;
8737;SDS011;4405;49.272;8.590;2023-07-08T06:34:58;9.67;;;6.70;;
8737;SDS011;4405;49.272;8.590;2023-07-08T06:37:24;7.83;;;6.90;;
8737;SDS011;4405;49.272;8.590;2023-07-08T06:39:51;8.67;;;6.90;;
8737;SDS011;4405;49.272;8.590;2023-07-08T06:42:17;7.77;;;6.80;;
8737;SDS011;4405;49.272;8.590;2023-07-08T06:44:43;6.87;;;6.27;;
8737;SDS011;4405;49.272;8.590;2023-07-08T06:47:15;6.90;;;6.30;;
8737;SDS011;4405;49.272;8.590;2023-07-08T06:49:43;9.50;;;6.03;;
8737;SDS011;4405;49.272;8.590;2023-07-08T06:52:09;8.27;;;6.43;;
8737;SDS011;4405;49.272;8.590;2023-07-08T06:54:36;7.53;;;6.60;;
8737;SDS011;4405;49.272;8.590;2023-07-08T06:57:02;11.67;;;6.57;;
8737;SDS011;4405;49.272;8.590;2023-07-08T06:59:28;6.70;;;5.27;;
8737;SDS011;4405;49.272;8.590;2023-07-08T07:01:55;7.20;;;5.33;;
8737;SDS011;4405;49.272;8.590;2023-07-08T07:04:21;7.03;;;5.20;;
8737;SDS011;4405;49.272;8.590;2023-07-08T07:06:49;7.70;;;4.90;;
8737;SDS011;4405;49.272;8.590;2023-07-08T07:09:15;8.90;;;4.60;;
8737;SDS011;4405;49.272;8.590;2023-07-08T07:11:42;5.13;;;4.63;;
8737;SDS011;4405;49.272;8.590;2023-07-08T07:14:08;6.00;;;4.30;;
8737;SDS011;4405;49.272;8.590;2023-07-08T07:16:34;4.53;;;4.10;;
8737;SDS011;4405;49.272;8.590;2023-07-08T07:19:01;7.80;;;4.97;;
8737;SDS011;4405;49.272;8.590;2023-07-08T07:21:27;4.83;;;3.90;;
8737;SDS011;4405;49.272;8.590;2023-07-08T07:23:55;4.70;;;4.30;;
8737;SDS011;4405;49.272;8.590;2023-07-08T07:26:21;4.73;;;3.83;;
8737;SDS011;4405;49.272;8.590;2023-07-08T07:28:48;4.93;;;4.47;;
8737;SDS011;4405;49.272;8.590;2023-07-08T07:31:14;5.13;;;4.43;;
8737;SDS011;4405;49.272;8.590;2023-07-08T07:33:40;6.13;;;4.30;;
8737;SDS011;4405;49.272;8.590;2023-07-08T07:36:07;5.60;;;4.30;;
8737;SDS011;4405;49.272;8.590;2023-07-08T07:38:33;4.80;;;4.30;;
8737;SDS011;4405;49.272;8.590;2023-07-08T07:41:01;7.03;;;4.50;;
8737;SDS011;4405;49.272;8.590;2023-07-08T07:43:31;6.03;;;3.80;;
8737;SDS011;4405;49.272;8.590;2023-07-08T07:45:57;4.00;;;3.60;;
8737;SDS011;4405;49.272;8.590;2023-07-08T07:48:24;6.43;;;3.87;;
8737;SDS011;4405;49.272;8.590;2023-07-08T07:50:50;4.67;;;3.50;;
8737;SDS011;4405;49.272;8.590;2023-07-08T07:53:17;4.27;;;3.63;;
8737;SDS011;4405;49.272;8.590;2023-07-08T07:55:43;4.00;;;3.60;;
8737;SDS011;4405;49.272;8.590;2023-07-08T07:58:11;6.40;;;3.80;;
8737;SDS011;4405;49.272;8.590;2023-07-08T08:00:38;4.67;;;3.93;;
8737;SDS011;4405;49.272;8.590;2023-07-08T08:03:04;9.77;;;3.70;;
8737;SDS011;4405;49.272;8.590;2023-07-08T08:05:30;5.30;;;3.47;;
8737;SDS011;4405;49.272;8.590;2023-07-08T08:07:57;6.27;;;3.47;;
8737;SDS011;4405;49.272;8.590;2023-07-08T08:10:23;3.97;;;3.20;;
8737;SDS011;4405;49.272;8.590;2023-07-08T08:12:49;3.90;;;3.60;;
8737;SDS011;4405;49.272;8.590;2023-07-08T08:15:19;4.37;;;3.27;;
8737;SDS011;4405;49.272;8.590;2023-07-08T08:17:45;3.70;;;3.37;;
8737;SDS011;4405;49.272;8.590;2023-07-08T08:20:14;5.50;;;3.17;;
8737;SDS011;4405;49.272;8.590;2023-07-08T08:22:40;4.63;;;3.10;;
8737;SDS011;4405;49.272;8.590;2023-07-08T08:25:07;5.10;;;3.23;;
8737;SDS011;4405;49.272;8.590;2023-07-08T08:27:33;3.63;;;2.83;;
8737;SDS011;4405;49.272;8.590;2023-07-08T08:29:59;4.50;;;3.07;;
8737;SDS011;4405;49.272;8.590;2023-07-08T08:32:27;5.53;;;2.80;;
8737;SDS011;4405;49.272;8.590;2023-07-08T08:34:53;3.30;;;3.00;;
8737;SDS011;4405;49.272;8.590;2023-07-08T08:37:20;4.03;;;3.00;;
8737;SDS011;4405;49.272;8.590;2023-07-08T08:39:46;3.43;;;3.13;;
8737;SDS011;4405;49.272;8.590;2023-07-08T08:42:14;7.63;;;2.90;;
8737;SDS011;4405;49.272;8.590;2023-07-08T08:44:42;4.40;;;2.90;;
8737;SDS011;4405;49.272;8.590;2023-07-08T08:47:22;2.90;;;2.70;;
8737;SDS011;4405;49.272;8.590;2023-07-08T08:49:54;7.37;;;3.00;;
8737;SDS011;4405;49.272;8.590;2023-07-08T08:52:23;4.07;;;2.90;;
8737;SDS011;4405;49.272;8.590;2023-07-08T08:54:49;2.90;;;2.70;;
8737;SDS011;4405;49.272;8.590;2023-07-08T08:57:27;5.47;;;3.17;;
8737;SDS011;4405;49.272;8.590;2023-07-08T08:59:57;5.77;;;2.67;;
8737;SDS011;4405;49.272;8.590;2023-07-08T09:02:30;2.93;;;2.60;;
8737;SDS011;4405;49.272;8.590;2023-07-08T09:05:01;3.40;;;2.93;;
8737;SDS011;4405;49.272;8.590;2023-07-08T09:07:28;4.33;;;2.80;;
8737;SDS011;4405;49.272;8.590;2023-07-08T09:09:58;7.03;;;2.70;;
8737;SDS011;4405;49.272;8.590;2023-07-08T09:12:27;5.07;;;3.20;;
8737;SDS011;4405;49.272;8.590;2023-07-08T09:14:53;3.33;;;3.03;;
8737;SDS011;4405;49.272;8.590;2023-07-08T09:17:20;4.13;;;3.27;;
8737;SDS011;4405;49.272;8.590;2023-07-08T09:19:49;3.87;;;2.97;;
8737;SDS011;4405;49.272;8.590;2023-07-08T09:22:20;5.53;;;3.23;;
8737;SDS011;4405;49.272;8.590;2023-07-08T09:24:48;4.93;;;3.20;;
8737;SDS011;4405;49.272;8.590;2023-07-08T09:27:15;4.63;;;3.50;;
8737;SDS011;4405;49.272;8.590;2023-07-08T09:29:42;5.00;;;3.40;;
8737;SDS011;4405;49.272;8.590;2023-07-08T09:32:13;4.40;;;3.60;;
8737;SDS011;4405;49.272;8.590;2023-07-08T09:34:41;4.47;;;3.53;;
8737;SDS011;4405;49.272;8.590;2023-07-08T09:37:20;6.37;;;3.40;;
8737;SDS011;4405;49.272;8.590;2023-07-08T09:39:47;3.30;;;3.00;;
8737;SDS011;4405;49.272;8.590;2023-07-08T09:42:13;5.10;;;3.80;;
8737;SDS011;4405;49.272;8.590;2023-07-08T09:44:41;4.17;;;3.47;;
8737;SDS011;4405;49.272;8.590;2023-07-08T09:47:17;4.47;;;3.53;;
8737;SDS011;4405;49.272;8.590;2023-07-08T09:49:47;5.03;;;3.47;;
8737;SDS011;4405;49.272;8.590;2023-07-08T09:52:13;4.17;;;3.83;;
8737;SDS011;4405;49.272;8.590;2023-07-08T09:54:41;7.53;;;4.00;;
8737;SDS011;4405;49.272;8.590;2023-07-08T09:57:09;4.13;;;3.73;;
8737;SDS011;4405;49.272;8.590;2023-07-08T09:59:38;5.63;;;3.60;;
8737;SDS011;4405;49.272;8.590;2023-07-08T10:02:16;4.40;;;4.00;;
8737;SDS011;4405;49.272;8.590;2023-07-08T10:04:46;5.03;;;3.70;;
8737;SDS011;4405;49.272;8.590;2023-07-08T10:07:14;4.27;;;3.80;;
8737;SDS011;4405;49.272;8.590;2023-07-08T10:09:43;4.50;;;4.10;;
8737;SDS011;4405;49.272;8.590;2023-07-08T10:12:12;3.80;;;3.50;;
8737;SDS011;4405;49.272;8.590;2023-07-08T10:14:41;6.03;;;3.70;;
8737;SDS011;4405;49.272;8.590;2023-07-08T10:17:10;3.30;;;3.10;;
8737;SDS011;4405;49.272;8.590;2023-07-08T10:19:39;6.63;;;3.20;;
8737;SDS011;4405;49.272;8.590;2023-07-08T10:22:13;3.17;;;2.90;;
8737;SDS011;4405;49.272;8.590;2023-07-08T10:24:46;4.10;;;2.93;;
8737;SDS011;4405;49.272;8.590;2023-07-08T10:27:19;4.10;;;3.30;;
8737;SDS011;4405;49.272;8.590;2023-07-08T10:29:51;3.80;;;3.23;;
8737;SDS011;4405;49.272;8.590;2023-07-08T10:32:20;3.57;;;3.10;;
8737;SDS011;4405;49.272;8.590;2023-07-08T10:34:50;3.40;;;3.10;;
8737;SDS011;4405;49.272;8.590;2023-07-08T10:37:22;5.37;;;4.07;;
8737;SDS011;4405;49.272;8.590;2023-07-08T10:39:53;4.30;;;3.70;;
8737;SDS011;4405;49.272;8.590;2023-07-08T10:42:25;4.10;;;3.80;;
8737;SDS011;4405;49.272;8.590;2023-07-08T10:44:54;5.53;;;3.77;;
8737;SDS011;4405;49.272;8.590;2023-07-08T10:47:27;5.10;;;4.00;;
8737;SDS011;4405;49.272;8.590;2023-07-08T10:49:59;4.00;;;3.57;;
8737;SDS011;4405;49.272;8.590;2023-07-08T10:52:38;5.13;;;3.80;;
8737;SDS011;4405;49.272;8.590;2023-07-08T10:55:10;5.00;;;3.83;;
8737;SDS011;4405;49.272;8.590;2023-07-08T11:00:30;4.40;;;4.00;;
8737;SDS011;4405;49.272;8.590;2023-07-08T11:05:43;4.30;;;4.00;;
8737;SDS011;4405;49.272;8.590;2023-07-08T11:08:12;5.17;;;4.03;;
8737;SDS011;4405;49.272;8.590;2023-07-08T11:10:45;4.40;;;4.00;;
8737;SDS011;4405;49.272;8.590;2023-07-08T11:13:14;4.97;;;4.18;;
8737;SDS011;4405;49.272;8.590;2023-07-08T11:15:42;5.40;;;4.07;;
8737;SDS011;4405;49.272;8.590;2023-07-08T11:18:11;4.40;;;3.93;;
8737;SDS011;4405;49.272;8.590;2023-07-08T11:20:40;5.00;;;4.13;;
8737;SDS011;4405;49.272;8.590;2023-07-08T11:23:10;5.40;;;4.20;;
8737;SDS011;4405;49.272;8.590;2023-07-08T11:25:37;6.80;;;3.83;;
8737;SDS011;4405;49.272;8.590;2023-07-08T11:28:07;3.70;;;3.40;;
8737;SDS011;4405;49.272;8.590;2023-07-08T11:30:37;4.57;;;4.07;;
8737;SDS011;4405;49.272;8.590;2023-07-08T11:33:08;6.88;;;4.18;;
8737;SDS011;4405;49.272;8.590;2023-07-08T11:35:37;4.18;;;3.78;;
8737;SDS011;4405;49.272;8.590;2023-07-08T11:38:05;6.35;;;3.97;;
8737;SDS011;4405;49.272;8.590;2023-07-08T11:40:32;6.10;;;4.03;;
8737;SDS011;4405;49.272;8.590;2023-07-08T11:43:04;5.22;;;3.88;;
8737;SDS011;4405;49.272;8.590;2023-07-08T11:45:33;6.07;;;3.60;;
8737;SDS011;4405;49.272;8.590;2023-07-08T11:48:04;4.30;;;3.95;;
8737;SDS011;4405;49.272;8.590;2023-07-08T11:50:32;4.28;;;3.88;;
8737;SDS011;4405;49.272;8.590;2023-07-08T11:53:00;5.65;;;3.75;;
8737;SDS011;4405;49.272;8.590;2023-07-08T11:55:27;4.45;;;4.15;;
8737;SDS011;4405;49.272;8.590;2023-07-08T11:58:00;4.40;;;3.88;;
8737;SDS011;4405;49.272;8.590;2023-07-08T12:00:30;7.32;;;4.32;;
8737;SDS011;4405;49.272;8.590;2023-07-08T12:03:03;4.65;;;4.07;;
8737;SDS011;4405;49.272;8.590;2023-07-08T12:05:33;4.55;;;4.18;;
8737;SDS011;4405;49.272;8.590;2023-07-08T12:08:00;5.47;;;3.83;;
8737;SDS011;4405;49.272;8.590;2023-07-08T12:10:31;4.30;;;3.97;;
8737;SDS011;4405;49.272;8.590;2023-07-08T12:12:58;4.38;;;3.80;;
8737;SDS011;4405;49.272;8.590;2023-07-08T12:15:25;4.22;;;3.70;;
8737;SDS011;4405;49.272;8.590;2023-07-08T12:17:52;7.50;;;4.07;;
8737;SDS011;4405;49.272;8.590;2023-07-08T12:20:21;5.60;;;3.90;;
8737;SDS011;4405;49.272;8.590;2023-07-08T12:22:48;3.70;;;3.50;;
8737;SDS011;4405;49.272;8.590;2023-07-08T12:25:14;4.23;;;3.80;;
8737;SDS011;4405;49.272;8.590;2023-07-08T12:27:42;3.63;;;3.43;;
8737;SDS011;4405;49.272;8.590;2023-07-08T12:30:09;5.17;;;3.47;;
8737;SDS011;4405;49.272;8.590;2023-07-08T12:32:36;6.07;;;3.83;;
8737;SDS011;4405;49.272;8.590;2023-07-08T12:35:02;4.40;;;4.00;;
8737;SDS011;4405;49.272;8.590;2023-07-08T12:37:32;4.17;;;3.70;;
8737;SDS011;4405;49.272;8.590;2023-07-08T12:39:58;5.60;;;3.80;;
8737;SDS011;4405;49.272;8.590;2023-07-08T12:42:29;4.23;;;3.80;;
8737;SDS011;4405;49.272;8.590;2023-07-08T12:44:56;5.00;;;3.70;;
8737;SDS011;4405;49.272;8.590;2023-07-08T12:47:22;5.67;;;3.60;;
8737;SDS011;4405;49.272;8.590;2023-07-08T12:49:49;4.73;;;3.60;;
8737;SDS011;4405;49.272;8.590;2023-07-08T12:52:19;4.13;;;3.93;;
8737;SDS011;4405;49.272;8.590;2023-07-08T12:54:47;5.13;;;4.10;;
8737;SDS011;4405;49.272;8.590;2023-07-08T12:57:13;5.40;;;3.90;;
8737;SDS011;4405;49.272;8.590;2023-07-08T12:59:40;5.20;;;4.20;;
8737;SDS011;4405;49.272;8.590;2023-07-08T13:02:09;3.77;;;3.47;;
8737;SDS011;4405;49.272;8.590;2023-07-08T13:04:40;6.87;;;4.13;;
8737;SDS011;4405;49.272;8.590;2023-07-08T13:07:22;5.03;;;4.13;;
8737;SDS011;4405;49.272;8.590;2023-07-08T13:09:51;6.77;;;4.47;;
8737;SDS011;4405;49.272;8.590;2023-07-08T13:12:18;5.20;;;3.57;;
8737;SDS011;4405;49.272;8.590;2023-07-08T13:14:47;5.17;;;3.70;;
8737;SDS011;4405;49.272;8.590;2023-07-08T13:17:14;5.43;;;4.07;;
8737;SDS011;4405;49.272;8.590;2023-07-08T13:19:41;4.53;;;3.57;;
8737;SDS011;4405;49.272;8.590;2023-07-08T13:22:09;4.50;;;4.10;;
8737;SDS011;4405;49.272;8.590;2023-07-08T13:24:36;5.13;;;4.17;;
8737;SDS011;4405;49.272;8.590;2023-07-08T13:27:12;4.47;;;4.13;;
8737;SDS011;4405;49.272;8.590;2023-07-08T13:29:39;3.90;;;3.60;;
8737;SDS011;4405;49.272;8.590;2023-07-08T13:32:06;4.43;;;3.80;;
8737;SDS011;4405;49.272;8.590;2023-07-08T13:34:33;3.80;;;3.50;;
8737;SDS011;4405;49.272;8.590;2023-07-08T13:36:59;3.50;;;3.30;;
8737;SDS011;4405;49.272;8.590;2023-07-08T13:39:27;6.40;;;4.00;;
8737;SDS011;4405;49.272;8.590;2023-07-08T13:41:53;4.73;;;3.83;;
8737;SDS011;4405;49.272;8.590;2023-07-08T13:44:21;4.00;;;3.10;;
8737;SDS011;4405;49.272;8.590;2023-07-08T13:46:51;3.75;;;3.10;;
8737;SDS011;4405;49.272;8.590;2023-07-08T13:49:20;3.60;;;3.30;;
8737;SDS011;4405;49.272;8.590;2023-07-08T13:51:46;3.28;;;3.05;;
8737;SDS011;4405;49.272;8.590;2023-07-08T13:54:14;3.58;;;3.28;;
8737;SDS011;4405;49.272;8.590;2023-07-08T13:56:42;5.32;;;4.10;;
8737;SDS011;4405;49.272;8.590;2023-07-08T13:59:09;7.22;;;3.65;;
8737;SDS011;4405;49.272;8.590;2023-07-08T14:01:37;4.65;;;3.75;;
8737;SDS011;4405;49.272;8.590;2023-07-08T14:04:04;4.22;;;3.58;;
8737;SDS011;4405;49.272;8.590;2023-07-08T14:06:32;3.75;;;3.35;;
8737;SDS011;4405;49.272;8.590;2023-07-08T14:08:59;5.15;;;3.55;;
8737;SDS011;4405;49.272;8.590;2023-07-08T14:11:26;3.95;;;3.55;;
8737;SDS011;4405;49.272;8.590;2023-07-08T14:13:52;3.63;;;3.30;;
8737;SDS011;4405;49.272;8.590;2023-07-08T14:16:21;3.90;;;3.55;;
8737;SDS011;4405;49.272;8.590;2023-07-08T14:18:51;3.60;;;3.30;;
8737;SDS011;4405;49.272;8.590;2023-07-08T14:21:17;3.60;;;3.30;;
8737;SDS011;4405;49.272;8.590;2023-07-08T14:23:44;5.55;;;3.60;;
8737;SDS011;4405;49.272;8.590;2023-07-08T14:26:10;5.70;;;3.40;;
8737;SDS011;4405;49.272;8.590;2023-07-08T14:28:37;3.75;;;3.45;;
8737;SDS011;4405;49.272;8.590;2023-07-08T14:31:04;4.78;;;3.35;;
8737;SDS011;4405;49.272;8.590;2023-07-08T14:33:34;4.82;;;3.22;;
8737;SDS011;4405;49.272;8.590;2023-07-08T14:36:02;3.95;;;3.50;;
8737;SDS011;4405;49.272;8.590;2023-07-08T14:38:28;3.50;;;2.80;;
8737;SDS011;4405;49.272;8.590;2023-07-08T14:40:55;3.55;;;3.25;;
8737;SDS011;4405;49.272;8.590;2023-07-08T14:43:22;3.40;;;3.15;;
8737;SDS011;4405;49.272;8.590;2023-07-08T14:45:52;4.20;;;3.28;;
8737;SDS011;4405;49.272;8.590;2023-07-08T14:48:19;3.55;;;3.20;;
8737;SDS011;4405;49.272;8.590;2023-07-08T14:50:45;3.90;;;3.60;;
8737;SDS011;4405;49.272;8.590;2023-07-08T14:53:14;3.78;;;3.15;;
8737;SDS011;4405;49.272;8.590;2023-07-08T14:55:40;3.33;;;3.03;;
8737;SDS011;4405;49.272;8.590;2023-07-08T14:58:08;5.38;;;3.47;;
8737;SDS011;4405;49.272;8.590;2023-07-08T15:00:36;3.33;;;3.00;;
8737;SDS011;4405;49.272;8.590;2023-07-08T15:03:02;4.82;;;3.75;;
8737;SDS011;4405;49.272;8.590;2023-07-08T15:05:30;3.60;;;3.30;;
8737;SDS011;4405;49.272;8.590;2023-07-08T15:07:56;3.20;;;3.00;;
8737;SDS011;4405;49.272;8.590;2023-07-08T15:10:26;3.25;;;3.05;;
8737;SDS011;4405;49.272;8.590;2023-07-08T15:12:53;3.97;;;3.40;;
8737;SDS011;4405;49.272;8.590;2023-07-08T15:15:21;3.60;;;3.30;;
8737;SDS011;4405;49.272;8.590;2023-07-08T15:17:49;5.18;;;3.20;;
8737;SDS011;4405;49.272;8.590;2023-07-08T15:20:16;3.20;;;3.00;;
8737;SDS011;4405;49.272;8.590;2023-07-08T15:22:43;3.55;;;3.17;;